createdAt,value
2023-04-25T00:00:30.925Z,32.22
2023-04-25T00:03:01.348Z,32.32
2023-04-25T00:05:31.042Z,32.18
2023-04-25T00:08:00.402Z,32.09
2023-04-25T00:10:29.702Z,31.86
2023-04-25T00:12:59.116Z,31.58
2023-04-25T00:15:27.902Z,31.92
2023-04-25T00:17:56.732Z,31.74
2023-04-25T00:20:26.434Z,31.68
2023-04-25T00:22:55.168Z,31.81
2023-04-25T00:25:24.002Z,31.66
2023-04-25T00:27:52.783Z,31.35
2023-04-25T00:30:21.672Z,31.54
2023-04-25T00:32:52.233Z,31.48
2023-04-25T00:35:21.429Z,31.60
2023-04-25T00:37:50.628Z,31.30
2023-04-25T00:40:19.734Z,30.98
2023-04-25T00:42:49.208Z,31.19
2023-04-25T00:45:19.530Z,31.26
2023-04-25T00:47:51.831Z,30.91
2023-04-25T00:50:20.785Z,31.50
2023-04-25T00:52:49.781Z,31.24
2023-04-25T00:55:18.666Z,31.50
2023-04-25T00:57:48.449Z,31.24
2023-04-25T01:00:18.798Z,31.25
2023-04-25T01:02:48.761Z,30.75
2023-04-25T01:05:17.865Z,31.08
2023-04-25T01:07:47.460Z,31.07
2023-04-25T01:10:16.975Z,31.33
2023-04-25T01:12:45.888Z,31.03
2023-04-25T01:15:15.398Z,31.35
2023-04-25T01:17:45.686Z,30.55
2023-04-25T01:20:16.018Z,30.52
2023-04-25T01:22:45.828Z,30.22
2023-04-25T01:25:14.998Z,30.37
2023-04-25T01:27:44.245Z,29.74
2023-04-25T01:30:13.441Z,29.63
2023-04-25T01:32:44.859Z,29.58
2023-04-25T01:35:14.314Z,29.20
2023-04-25T01:37:44.854Z,28.96
2023-04-25T01:40:15.228Z,28.38
2023-04-25T01:42:45.604Z,27.96
2023-04-25T01:45:14.980Z,27.43
2023-04-25T01:47:45.344Z,26.98
2023-04-25T01:50:14.751Z,26.51
2023-04-25T01:52:43.797Z,25.59
2023-04-25T01:55:13.584Z,25.48
2023-04-25T01:57:51.829Z,24.94
2023-04-25T02:00:26.176Z,24.44
2023-04-25T02:02:55.376Z,24.02
2023-04-25T02:05:39.756Z,23.69
2023-04-25T02:08:11.333Z,23.69
2023-04-25T02:10:40.392Z,22.97
2023-04-25T02:13:32.258Z,22.54
2023-04-25T02:16:24.209Z,22.26
2023-04-25T02:18:55.614Z,22.12
2023-04-25T02:21:24.403Z,21.73
2023-04-25T02:23:53.750Z,21.22
2023-04-25T02:26:22.736Z,21.04
2023-04-25T02:28:52.138Z,20.84
2023-04-25T02:31:21.894Z,20.27
2023-04-25T02:33:51.124Z,19.70
2023-04-25T02:36:20.088Z,19.29
2023-04-25T02:38:51.769Z,18.76
2023-04-25T02:41:23.497Z,18.67
2023-04-25T02:43:52.631Z,18.62
2023-04-25T02:46:32.221Z,18.31
2023-04-25T02:49:08.783Z,17.79
2023-04-25T02:51:37.927Z,17.42
2023-04-25T02:54:08.060Z,17.38
2023-04-25T02:56:41.788Z,17.21
2023-04-25T02:59:16.322Z,16.87
2023-04-25T03:01:47.047Z,16.50
2023-04-25T03:04:16.586Z,16.59
2023-04-25T03:06:45.811Z,16.53
2023-04-25T03:09:14.893Z,16.04
2023-04-25T03:11:43.927Z,16.35
2023-04-25T03:14:13.476Z,15.55
2023-04-25T03:16:42.459Z,15.61
2023-04-25T03:19:12.294Z,15.56
2023-04-25T03:21:41.201Z,15.54
2023-04-25T03:24:12.521Z,15.16
2023-04-25T03:26:41.384Z,15.09
2023-04-25T03:29:10.954Z,15.07
2023-04-25T03:31:41.547Z,14.81
2023-04-25T03:34:11.597Z,14.63
2023-04-25T03:36:41.704Z,14.44
2023-04-25T03:39:11.961Z,14.42
2023-04-25T03:41:43.290Z,14.42
2023-04-25T03:44:17.096Z,13.98
2023-04-25T03:46:46.789Z,13.89
2023-04-25T03:49:17.877Z,13.78
2023-04-25T03:52:15.712Z,13.79
2023-04-25T03:54:48.183Z,13.48
2023-04-25T03:57:21.134Z,13.30
2023-04-25T03:59:50.074Z,13.08
2023-04-25T04:02:20.401Z,13.15
2023-04-25T04:04:50.470Z,12.85
2023-04-25T04:07:19.724Z,13.04
2023-04-25T04:09:52.735Z,12.40
2023-04-25T04:12:27.629Z,12.52
2023-04-25T04:14:56.507Z,11.71
2023-04-25T04:17:27.036Z,12.14
2023-04-25T04:19:56.610Z,12.01
2023-04-25T04:22:26.492Z,11.87
2023-04-25T04:24:59.279Z,12.06
2023-04-25T04:27:53.341Z,11.67
2023-04-25T04:30:32.573Z,11.85
2023-04-25T04:33:07.167Z,11.84
2023-04-25T04:35:36.926Z,11.97
2023-04-25T04:38:06.562Z,11.92
2023-04-25T04:40:36.949Z,11.48
2023-04-25T04:43:27.175Z,11.61
2023-04-25T04:46:05.746Z,11.22
2023-04-25T04:48:44.277Z,11.13
2023-04-25T04:51:32.739Z,11.28
2023-04-25T04:54:31.508Z,11.58
2023-04-25T04:57:18.278Z,10.86
2023-04-25T05:00:01.096Z,11.32
2023-04-25T05:02:51.605Z,10.96
2023-04-25T05:05:32.262Z,10.82
2023-04-25T05:08:21.610Z,10.75
2023-04-25T05:11:11.720Z,10.71
2023-04-25T05:14:00.929Z,10.65
2023-04-25T05:16:48.500Z,10.50
2023-04-25T05:19:41.517Z,10.58
2023-04-25T05:22:34.523Z,10.72
2023-04-25T05:25:16.591Z,10.57
2023-04-25T05:28:07.418Z,10.19
2023-04-25T05:30:53.138Z,10.32
2023-04-25T05:33:28.845Z,10.30
2023-04-25T05:35:58.020Z,10.28
2023-04-25T05:38:28.717Z,10.50
2023-04-25T05:41:33.137Z,10.14
2023-04-25T05:44:14.889Z,9.84
2023-04-25T05:46:52.108Z,10.12
2023-04-25T05:49:27.664Z,10.51
2023-04-25T05:52:19.329Z,10.50
2023-04-25T05:54:59.186Z,10.33
2023-04-25T05:57:29.707Z,10.23
2023-04-25T05:59:59.048Z,10.48
2023-04-25T06:02:44.368Z,10.25
2023-04-25T06:05:16.914Z,10.43
2023-04-25T06:07:48.925Z,10.68
2023-04-25T06:10:18.331Z,10.46
2023-04-25T06:12:48.780Z,10.51
2023-04-25T06:17:52.198Z,10.88
2023-04-25T06:20:24.590Z,10.96
2023-04-25T06:22:54.673Z,10.92
2023-04-25T06:25:30.533Z,11.15
2023-04-25T06:27:59.348Z,11.26
2023-04-25T06:30:29.722Z,11.70
2023-04-25T06:33:05.721Z,11.15
2023-04-25T06:35:35.638Z,11.86
2023-04-25T06:38:05.306Z,11.51
2023-04-25T06:40:34.642Z,11.31
2023-04-25T06:43:03.998Z,11.52
2023-04-25T06:45:56.569Z,11.52
2023-04-25T06:48:29.809Z,11.79
2023-04-25T06:51:00.865Z,12.11
2023-04-25T06:53:30.990Z,12.21
2023-04-25T06:56:05.610Z,12.00
2023-04-25T06:58:48.027Z,11.87
2023-04-25T07:01:30.518Z,11.85
2023-04-25T07:04:01.400Z,11.51
2023-04-25T07:06:33.169Z,11.90
2023-04-25T07:09:02.232Z,12.11
2023-04-25T07:11:31.367Z,12.64
2023-04-25T07:14:01.251Z,12.67
2023-04-25T07:16:30.989Z,12.94
2023-04-25T07:19:04.111Z,13.10
2023-04-25T07:21:33.367Z,13.60
2023-04-25T07:24:04.765Z,13.42
2023-04-25T07:26:37.313Z,13.81
2023-04-25T07:29:19.293Z,13.80
2023-04-25T07:31:48.206Z,14.09
2023-04-25T07:34:17.394Z,14.21
2023-04-25T07:36:47.872Z,14.23
2023-04-25T07:39:16.779Z,14.23
2023-04-25T07:41:46.490Z,14.18
2023-04-25T07:44:22.584Z,14.42
2023-04-25T07:46:51.937Z,14.41
2023-04-25T07:49:21.769Z,14.30
2023-04-25T07:51:51.756Z,14.39
2023-04-25T07:54:23.391Z,14.56
2023-04-25T07:57:03.924Z,14.49
2023-04-25T07:59:34.472Z,14.69
2023-04-25T08:02:06.347Z,14.87
2023-04-25T08:04:37.251Z,15.14
2023-04-25T08:07:09.922Z,15.35
2023-04-25T08:09:50.589Z,15.19
2023-04-25T08:12:26.896Z,15.37
2023-04-25T08:14:56.245Z,15.53
2023-04-25T08:17:27.818Z,15.61
2023-04-25T08:19:57.489Z,15.62
2023-04-25T08:22:36.178Z,15.83
2023-04-25T08:25:25.758Z,15.73
2023-04-25T08:27:54.908Z,15.78
2023-04-25T08:30:25.048Z,15.77
2023-04-25T08:32:54.116Z,15.76
2023-04-25T08:35:48.373Z,16.04
2023-04-25T08:38:19.151Z,16.13
2023-04-25T08:40:55.508Z,16.29
2023-04-25T08:43:27.185Z,16.31
2023-04-25T08:46:02.938Z,16.13
2023-04-25T08:48:48.997Z,16.27
2023-04-25T08:51:28.034Z,16.12
2023-04-25T08:54:28.026Z,16.17
2023-04-25T08:57:05.777Z,15.87
2023-04-25T08:59:37.910Z,15.98
2023-04-25T09:02:10.970Z,16.15
2023-04-25T09:04:41.270Z,16.14
2023-04-25T09:07:10.072Z,16.18
2023-04-25T09:09:39.332Z,16.24
2023-04-25T09:12:08.421Z,16.54
2023-04-25T09:14:38.054Z,16.35
2023-04-25T09:17:26.408Z,16.55
2023-04-25T09:20:06.789Z,16.56
2023-04-25T09:22:37.832Z,16.46
2023-04-25T09:25:12.102Z,16.68
2023-04-25T09:27:53.995Z,16.49
2023-04-25T09:30:36.738Z,16.71
2023-04-25T09:33:14.134Z,16.90
2023-04-25T09:35:54.412Z,16.90
2023-04-25T09:38:32.918Z,17.13
2023-04-25T09:41:13.834Z,16.96
2023-04-25T09:43:48.539Z,17.12
2023-04-25T09:46:20.839Z,16.98
2023-04-25T09:48:55.586Z,17.30
2023-04-25T09:51:34.732Z,17.20
2023-04-25T09:54:06.330Z,17.40
2023-04-25T09:56:50.286Z,17.20
2023-04-25T09:59:23.314Z,17.31
2023-04-25T10:01:56.416Z,17.71
2023-04-25T10:04:37.276Z,17.71
2023-04-25T10:07:10.517Z,18.02
2023-04-25T10:09:41.428Z,18.43
2023-04-25T10:12:10.743Z,18.60
2023-04-25T10:14:40.530Z,18.52
2023-04-25T10:17:12.053Z,19.24
2023-04-25T10:19:41.588Z,20.05
2023-04-25T10:22:19.673Z,21.97
2023-04-25T10:24:49.020Z,22.94
2023-04-25T10:27:18.415Z,23.88
2023-04-25T10:30:01.636Z,24.54
2023-04-25T10:32:36.470Z,24.80
2023-04-25T10:35:32.029Z,25.41
2023-04-25T10:38:06.504Z,26.10
2023-04-25T10:40:35.616Z,27.34
2023-04-25T10:43:41.640Z,28.09
2023-04-25T10:46:24.211Z,28.78
2023-04-25T10:48:58.044Z,30.00
2023-04-25T10:51:47.388Z,31.59
2023-04-25T10:54:27.293Z,32.07
2023-04-25T10:56:56.252Z,32.63
2023-04-25T10:59:27.172Z,33.35
2023-04-25T11:01:58.177Z,33.85
2023-04-25T11:04:31.617Z,34.65
2023-04-25T11:07:09.913Z,35.36
2023-04-25T11:09:42.054Z,35.98
2023-04-25T11:12:13.262Z,36.68
2023-04-25T11:14:42.331Z,36.34
2023-04-25T11:17:12.917Z,37.71
2023-04-25T11:19:42.930Z,38.14
2023-04-25T11:22:12.655Z,39.29
2023-04-25T11:24:41.854Z,39.62
2023-04-25T11:27:11.012Z,40.68
2023-04-25T11:29:39.840Z,39.90
2023-04-25T11:32:09.475Z,40.21
2023-04-25T11:34:38.450Z,40.88
2023-04-25T11:37:08.118Z,41.52
2023-04-25T11:39:37.328Z,42.31
2023-04-25T11:42:12.099Z,42.34
2023-04-25T11:44:43.233Z,43.19
2023-04-25T11:47:12.104Z,42.83
2023-04-25T11:49:40.929Z,43.43
2023-04-25T11:52:09.877Z,43.80
2023-04-25T11:54:39.738Z,44.58
2023-04-25T11:57:08.640Z,43.63
2023-04-25T11:59:37.549Z,43.99
2023-04-25T12:02:08.572Z,44.77
2023-04-25T12:04:37.957Z,45.78
2023-04-25T12:07:12.058Z,45.62
2023-04-25T12:09:42.233Z,45.38
2023-04-25T12:12:11.931Z,46.45
2023-04-25T12:14:40.796Z,47.28
2023-04-25T12:17:11.367Z,47.90
2023-04-25T12:19:45.367Z,47.99
2023-04-25T12:22:33.516Z,48.12
2023-04-25T12:25:02.413Z,48.45
2023-04-25T12:27:35.676Z,48.47
2023-04-25T12:30:05.396Z,48.35
2023-04-25T12:32:37.479Z,50.13
2023-04-25T12:35:08.150Z,48.88
2023-04-25T12:37:37.038Z,49.71
2023-04-25T12:40:08.173Z,50.12
2023-04-25T12:42:37.207Z,50.61
2023-04-25T12:45:06.366Z,49.36
2023-04-25T12:47:36.840Z,48.83
2023-04-25T12:50:10.239Z,48.41
2023-04-25T12:52:39.744Z,48.77
2023-04-25T12:55:09.171Z,48.44
2023-04-25T12:57:38.050Z,48.44
2023-04-25T13:00:11.050Z,49.23
2023-04-25T13:02:40.668Z,49.79
2023-04-25T13:05:11.189Z,49.70
2023-04-25T13:07:40.154Z,50.65
2023-04-25T13:10:09.436Z,52.09
2023-04-25T13:12:38.303Z,53.75
2023-04-25T13:15:08.682Z,54.90
2023-04-25T13:17:37.848Z,55.78
2023-04-25T13:20:10.279Z,57.38
2023-04-25T13:22:40.900Z,58.98
2023-04-25T13:25:10.507Z,60.17
2023-04-25T13:27:41.424Z,59.33
2023-04-25T13:30:10.609Z,59.28
2023-04-25T13:32:40.200Z,60.09
2023-04-25T13:35:13.993Z,60.37
2023-04-25T13:37:42.919Z,61.31
2023-04-25T13:40:12.887Z,62.20
2023-04-25T13:42:42.241Z,63.07
2023-04-25T13:45:11.837Z,62.35
2023-04-25T13:47:40.688Z,62.75
2023-04-25T13:50:10.082Z,62.59
2023-04-25T13:52:39.621Z,62.75
2023-04-25T13:55:10.031Z,62.94
2023-04-25T13:57:41.132Z,63.09
2023-04-25T14:00:12.364Z,62.47
2023-04-25T14:02:41.601Z,62.94
2023-04-25T14:05:10.860Z,62.77
2023-04-25T14:07:39.770Z,62.90
2023-04-25T14:10:09.211Z,63.99
2023-04-25T14:12:38.102Z,64.41
2023-04-25T14:15:07.426Z,64.82
2023-04-25T14:17:36.323Z,65.33
2023-04-25T14:20:07.391Z,65.40
2023-04-25T14:22:36.463Z,65.92
2023-04-25T14:25:05.822Z,66.31
2023-04-25T14:27:34.644Z,66.89
2023-04-25T14:30:03.463Z,67.61
2023-04-25T14:32:33.727Z,66.92
2023-04-25T14:35:02.881Z,67.17
2023-04-25T14:37:32.649Z,67.20
2023-04-25T14:40:01.420Z,67.68
2023-04-25T14:42:33.562Z,68.02
2023-04-25T14:45:02.570Z,68.77
2023-04-25T14:47:35.330Z,69.05
2023-04-25T14:50:06.102Z,69.52
2023-04-25T14:52:34.949Z,70.45
2023-04-25T14:55:06.871Z,70.32
2023-04-25T14:57:36.539Z,71.27
2023-04-25T15:00:09.095Z,71.17
2023-04-25T15:02:38.960Z,71.92
2023-04-25T15:05:08.732Z,72.60
2023-04-25T15:07:37.635Z,72.94
2023-04-25T15:10:07.786Z,73.66
2023-04-25T15:12:36.792Z,73.77
2023-04-25T15:15:07.252Z,73.91
2023-04-25T15:17:40.135Z,73.42
2023-04-25T15:20:14.608Z,73.64
2023-04-25T15:22:45.263Z,73.51
2023-04-25T15:25:14.114Z,73.77
2023-04-25T15:27:45.259Z,73.73
2023-04-25T15:30:16.912Z,74.08
2023-04-25T15:32:46.922Z,73.63
2023-04-25T15:35:19.237Z,73.51
2023-04-25T15:37:48.012Z,74.04
2023-04-25T15:40:18.094Z,73.98
2023-04-25T15:42:48.582Z,73.59
2023-04-25T15:45:18.422Z,74.41
2023-04-25T15:47:48.317Z,74.27
2023-04-25T15:50:17.243Z,73.88
2023-04-25T15:52:46.269Z,74.33
2023-04-25T15:55:15.735Z,74.30
2023-04-25T15:57:44.764Z,74.76
2023-04-25T16:00:16.203Z,74.35
2023-04-25T16:02:49.004Z,74.40
2023-04-25T16:05:18.923Z,74.22
2023-04-25T16:07:48.888Z,73.86
2023-04-25T16:10:22.028Z,74.02
2023-04-25T16:12:51.989Z,74.36
2023-04-25T16:15:20.958Z,74.49
2023-04-25T16:17:49.909Z,74.55
2023-04-25T16:20:18.950Z,74.59
2023-04-25T16:22:48.166Z,75.09
2023-04-25T16:25:16.958Z,74.40
2023-04-25T16:27:45.681Z,74.68
2023-04-25T16:30:15.082Z,74.93
2023-04-25T16:32:45.570Z,74.94
2023-04-25T16:35:14.783Z,74.83
2023-04-25T16:37:43.682Z,74.76
2023-04-25T16:40:13.354Z,74.63
2023-04-25T16:42:42.140Z,75.07
2023-04-25T16:45:11.715Z,74.94
2023-04-25T16:47:40.563Z,74.32
2023-04-25T16:50:09.931Z,73.86
2023-04-25T16:52:38.744Z,74.42
2023-04-25T16:55:08.787Z,74.02
2023-04-25T16:57:38.266Z,74.01
2023-04-25T17:00:10.605Z,73.75
2023-04-25T17:02:39.785Z,73.56
2023-04-25T17:05:10.202Z,74.13
2023-04-25T17:07:39.616Z,73.96
2023-04-25T17:10:09.757Z,73.95
2023-04-25T17:12:39.212Z,74.37
2023-04-25T17:15:08.518Z,74.30
2023-04-25T17:17:37.534Z,74.38
2023-04-25T17:20:07.701Z,74.07
2023-04-25T17:22:40.559Z,73.89
2023-04-25T17:25:10.321Z,74.10
2023-04-25T17:27:39.172Z,73.21
2023-04-25T17:30:09.189Z,73.90
2023-04-25T17:32:38.147Z,73.78
2023-04-25T17:35:07.343Z,73.29
2023-04-25T17:37:36.507Z,73.37
2023-04-25T17:40:07.715Z,73.23
2023-04-25T17:42:36.542Z,73.42
2023-04-25T17:45:05.939Z,73.20
2023-04-25T17:47:35.085Z,73.33
2023-04-25T17:50:05.302Z,73.31
2023-04-25T17:52:34.167Z,74.04
2023-04-25T17:55:03.251Z,73.72
2023-04-25T17:57:32.413Z,73.98
2023-04-25T18:00:01.592Z,74.02
2023-04-25T18:02:43.055Z,73.93
2023-04-25T18:05:12.382Z,74.02
2023-04-25T18:07:42.236Z,73.62
2023-04-25T18:10:12.459Z,73.75
2023-04-25T18:12:41.404Z,73.46
2023-04-25T18:15:11.155Z,73.68
2023-04-25T18:17:43.538Z,74.13
2023-04-25T18:20:17.889Z,74.11
2023-04-25T18:22:47.547Z,73.35
2023-04-25T18:25:16.356Z,73.84
2023-04-25T18:27:46.358Z,73.40
2023-04-25T18:30:15.383Z,73.72
2023-04-25T18:32:44.402Z,73.87
2023-04-25T18:35:13.766Z,73.95
2023-04-25T18:37:42.946Z,73.59
2023-04-25T18:40:14.391Z,73.37
2023-04-25T18:42:43.801Z,73.19
2023-04-25T18:45:13.027Z,73.23
2023-04-25T18:47:41.938Z,73.03
2023-04-25T18:50:11.227Z,73.66
2023-04-25T18:52:40.190Z,73.34
2023-04-25T18:55:09.823Z,72.91
2023-04-25T18:57:39.596Z,73.25
2023-04-25T19:00:10.009Z,72.94
2023-04-25T19:02:39.530Z,73.05
2023-04-25T19:05:09.206Z,73.33
2023-04-25T19:07:40.832Z,73.19
2023-04-25T19:10:10.119Z,73.53
2023-04-25T19:12:38.858Z,73.19
2023-04-25T19:15:08.405Z,73.26
2023-04-25T19:17:37.842Z,73.57
2023-04-25T19:20:07.544Z,73.60
2023-04-25T19:22:36.547Z,73.69
2023-04-25T19:25:10.460Z,73.47
2023-04-25T19:27:40.372Z,73.61
2023-04-25T19:30:09.830Z,73.85
2023-04-25T19:32:39.949Z,73.04
2023-04-25T19:35:11.618Z,73.68
2023-04-25T19:37:46.753Z,73.38
2023-04-25T19:40:18.000Z,73.64
2023-04-25T19:42:48.244Z,73.82
2023-04-25T19:45:17.161Z,73.40
2023-04-25T19:47:46.122Z,73.85
2023-04-25T19:50:14.987Z,73.62
2023-04-25T19:52:44.136Z,73.76
2023-04-25T19:55:12.953Z,73.71
2023-04-25T19:57:41.987Z,73.74
2023-04-25T20:00:15.877Z,73.73
2023-04-25T20:02:46.672Z,73.62
2023-04-25T20:05:18.085Z,73.18
2023-04-25T20:07:46.904Z,73.36
2023-04-25T20:10:17.052Z,73.13
2023-04-25T20:12:46.275Z,73.31
2023-04-25T20:15:15.147Z,73.02
2023-04-25T20:17:43.984Z,72.73
2023-04-25T20:20:13.330Z,72.87
2023-04-25T20:22:42.188Z,72.85
2023-04-25T20:25:12.675Z,72.43
2023-04-25T20:27:41.506Z,71.97
2023-04-25T20:30:12.518Z,71.68
2023-04-25T20:32:41.557Z,72.32
2023-04-25T20:35:12.054Z,71.58
2023-04-25T20:37:44.127Z,71.74
2023-04-25T20:40:13.213Z,71.45
2023-04-25T20:42:42.197Z,70.75
2023-04-25T20:45:14.088Z,71.08
2023-04-25T20:47:44.998Z,70.45
2023-04-25T20:50:13.998Z,70.52
2023-04-25T20:52:43.790Z,70.68
2023-04-25T20:55:12.686Z,70.20
2023-04-25T20:57:41.741Z,70.43
2023-04-25T21:00:19.268Z,70.35
2023-04-25T21:02:48.653Z,70.33
2023-04-25T21:05:17.857Z,69.90
2023-04-25T21:07:47.388Z,70.33
2023-04-25T21:10:17.881Z,69.64
2023-04-25T21:12:48.342Z,69.63
2023-04-25T21:15:18.618Z,69.67
2023-04-25T21:17:48.282Z,69.82
2023-04-25T21:20:21.311Z,70.22
2023-04-25T21:22:54.171Z,69.80
2023-04-25T21:25:29.532Z,69.55
2023-04-25T21:27:59.535Z,69.44
2023-04-25T21:30:28.574Z,69.44
2023-04-25T21:32:57.611Z,69.38
2023-04-25T21:35:26.648Z,69.22
2023-04-25T21:37:55.537Z,69.29
2023-04-25T21:40:24.728Z,69.23
2023-04-25T21:42:53.897Z,68.75
2023-04-25T21:45:22.948Z,69.20
2023-04-25T21:47:51.875Z,68.93
2023-04-25T21:50:21.390Z,69.31
2023-04-25T21:52:50.350Z,68.84
2023-04-25T21:55:20.324Z,68.62
2023-04-25T21:57:49.546Z,69.00
2023-04-25T22:00:25.290Z,68.77
2023-04-25T22:02:59.394Z,68.41
2023-04-25T22:05:29.975Z,68.65
2023-04-25T22:07:58.877Z,68.61
2023-04-25T22:10:28.471Z,68.75
2023-04-25T22:12:57.460Z,68.51
2023-04-25T22:15:27.062Z,68.17
2023-04-25T22:17:55.871Z,68.31
2023-04-25T22:20:26.874Z,68.47
2023-04-25T22:22:59.155Z,68.51
2023-04-25T22:25:28.042Z,68.28
2023-04-25T22:27:57.860Z,67.81
2023-04-25T22:30:26.920Z,68.00
2023-04-25T22:32:57.037Z,68.02
2023-04-25T22:35:26.390Z,67.90
2023-04-25T22:37:55.291Z,67.48
2023-04-25T22:40:24.681Z,67.77
2023-04-25T22:42:53.543Z,67.54
2023-04-25T22:45:22.416Z,67.54
2023-04-25T22:47:51.264Z,66.76
2023-04-25T22:50:20.837Z,66.88
2023-04-25T22:52:49.756Z,67.12
2023-04-25T22:55:18.646Z,67.21
2023-04-25T22:57:48.936Z,67.03
2023-04-25T23:00:22.507Z,67.19
2023-04-25T23:02:51.989Z,67.10
2023-04-25T23:05:20.927Z,67.16
2023-04-25T23:07:50.152Z,66.47
2023-04-25T23:10:20.090Z,67.22
2023-04-25T23:12:49.354Z,66.86
2023-04-25T23:15:18.535Z,67.28
2023-04-25T23:17:47.518Z,67.04
2023-04-25T23:20:16.416Z,66.62
2023-04-25T23:22:45.563Z,67.27
2023-04-25T23:25:14.514Z,66.70
2023-04-25T23:27:43.945Z,67.32
2023-04-25T23:30:13.156Z,67.60
2023-04-25T23:32:43.245Z,66.86
2023-04-25T23:35:12.652Z,67.22
2023-04-25T23:37:41.852Z,67.51
2023-04-25T23:40:11.420Z,67.73
2023-04-25T23:42:42.849Z,68.43
2023-04-25T23:45:11.999Z,68.25
2023-04-25T23:47:40.908Z,68.20
2023-04-25T23:50:10.108Z,68.10
2023-04-25T23:52:41.509Z,68.15
2023-04-25T23:55:10.456Z,68.55
2023-04-25T23:57:39.475Z,68.38
